DTO weather

Denton Municipal Airport
Denton, Texas, United States

Public forecast

Using degrees Fahrenheit for public forecast. Weather courtesy of forecast.io.

METAR (pilot weather report)

Retrieved 2019/05/20 17:53 UTC (33 minutes ago):

KDTO 201753Z 15020G26KT 10SM FEW025 SCT031 BKN039 28/22 A2978 RMK AO2 PK WND 15026/1752 SLP075 T02830222 10289 20222 58017 $

TAF (pilot weather forecast)

Closest forecast is Fort Worth Alliance Airport, 14.2 nm (26.2 km) SSW. Retrieved 2019/05/20 18:42 UTC (0 seconds ago):

TAF KAFW 201739Z 2018/2118 16018KT P6SM BKN025 FM201900 16018G28KT P6SM VCTS BKN030CB FM202200 16020G30KT P6SM BKN050 FM210700 15022KT P6SM BKN015 FM211000 20018KT P6SM -SHRA VCTS BKN025CB TEMPO 2111/2114 25020G35KT 4SM -TSRA BKN015CB FM211400 22017KT P6SM VCSH BKN025